sensor_id;sensor_type;location;lat;lon;timestamp;temperature;humidity
51902;DHT22;37929;53.218;6.548;2023-12-20T00:01:58;7.10;99.90
51902;DHT22;37929;53.218;6.548;2023-12-20T00:04:24;5.90;99.90
51902;DHT22;37929;53.218;6.548;2023-12-20T00:06:49;5.90;99.90
51902;DHT22;37929;53.218;6.548;2023-12-20T00:09:15;5.90;99.90
51902;DHT22;37929;53.218;6.548;2023-12-20T00:11:41;6.60;99.90
51902;DHT22;37929;53.218;6.548;2023-12-20T00:14:07;5.90;99.90
51902;DHT22;37929;53.218;6.548;2023-12-20T00:16:33;6.00;99.90
51902;DHT22;37929;53.218;6.548;2023-12-20T00:18:59;5.90;99.90
51902;DHT22;37929;53.218;6.548;2023-12-20T00:21:24;7.00;99.90
51902;DHT22;37929;53.218;6.548;2023-12-20T00:23:50;6.60;99.90
51902;DHT22;37929;53.218;6.548;2023-12-20T00:26:16;5.80;99.90
51902;DHT22;37929;53.218;6.548;2023-12-20T00:28:41;5.90;99.90
51902;DHT22;37929;53.218;6.548;2023-12-20T00:31:08;5.80;99.90
51902;DHT22;37929;53.218;6.548;2023-12-20T00:33:34;5.80;99.90
51902;DHT22;37929;53.218;6.548;2023-12-20T00:35:59;6.40;99.90
51902;DHT22;37929;53.218;6.548;2023-12-20T00:38:25;5.70;99.90
51902;DHT22;37929;53.218;6.548;2023-12-20T00:40:51;5.90;99.90
51902;DHT22;37929;53.218;6.548;2023-12-20T00:43:17;6.70;99.90
51902;DHT22;37929;53.218;6.548;2023-12-20T00:45:43;6.00;99.90
51902;DHT22;37929;53.218;6.548;2023-12-20T00:48:08;5.70;99.90
51902;DHT22;37929;53.218;6.548;2023-12-20T00:50:34;5.70;99.90
51902;DHT22;37929;53.218;6.548;2023-12-20T00:53:00;7.30;99.90
51902;DHT22;37929;53.218;6.548;2023-12-20T00:55:25;6.00;99.90
51902;DHT22;37929;53.218;6.548;2023-12-20T00:57:51;5.80;99.90
51902;DHT22;37929;53.218;6.548;2023-12-20T01:00:18;5.80;99.90
51902;DHT22;37929;53.218;6.548;2023-12-20T01:02:44;5.80;99.90
51902;DHT22;37929;53.218;6.548;2023-12-20T01:05:12;5.70;99.90
51902;DHT22;37929;53.218;6.548;2023-12-20T01:07:37;5.80;99.90
51902;DHT22;37929;53.218;6.548;2023-12-20T01:10:03;6.10;99.90
51902;DHT22;37929;53.218;6.548;2023-12-20T01:12:29;5.80;99.90
51902;DHT22;37929;53.218;6.548;2023-12-20T01:14:55;5.80;99.90
51902;DHT22;37929;53.218;6.548;2023-12-20T01:17:20;5.80;99.90
51902;DHT22;37929;53.218;6.548;2023-12-20T01:19:46;5.80;99.90
51902;DHT22;37929;53.218;6.548;2023-12-20T01:22:12;5.70;99.90
51902;DHT22;37929;53.218;6.548;2023-12-20T01:24:38;5.80;99.90
51902;DHT22;37929;53.218;6.548;2023-12-20T01:27:04;5.80;99.90
51902;DHT22;37929;53.218;6.548;2023-12-20T01:29:31;5.90;99.90
51902;DHT22;37929;53.218;6.548;2023-12-20T01:31:56;5.80;99.90
51902;DHT22;37929;53.218;6.548;2023-12-20T01:34:22;5.90;99.90
51902;DHT22;37929;53.218;6.548;2023-12-20T01:36:48;5.90;99.90
51902;DHT22;37929;53.218;6.548;2023-12-20T01:39:14;5.90;99.90
51902;DHT22;37929;53.218;6.548;2023-12-20T01:41:39;5.90;99.90
51902;DHT22;37929;53.218;6.548;2023-12-20T01:44:05;6.00;99.90
51902;DHT22;37929;53.218;6.548;2023-12-20T01:46:31;6.10;99.90
51902;DHT22;37929;53.218;6.548;2023-12-20T01:48:57;6.10;99.90
51902;DHT22;37929;53.218;6.548;2023-12-20T01:51:23;6.40;99.90
51902;DHT22;37929;53.218;6.548;2023-12-20T01:53:50;6.10;99.90
51902;DHT22;37929;53.218;6.548;2023-12-20T01:56:18;6.00;99.90
51902;DHT22;37929;53.218;6.548;2023-12-20T01:58:46;6.10;99.90
51902;DHT22;37929;53.218;6.548;2023-12-20T02:01:13;6.10;99.90
51902;DHT22;37929;53.218;6.548;2023-12-20T02:03:41;7.30;99.90
51902;DHT22;37929;53.218;6.548;2023-12-20T02:06:07;6.20;99.90
51902;DHT22;37929;53.218;6.548;2023-12-20T02:08:34;6.30;99.90
51902;DHT22;37929;53.218;6.548;2023-12-20T02:11:00;6.50;99.90
51902;DHT22;37929;53.218;6.548;2023-12-20T02:13:26;6.10;99.90
51902;DHT22;37929;53.218;6.548;2023-12-20T02:15:52;6.00;99.90
51902;DHT22;37929;53.218;6.548;2023-12-20T02:18:18;6.00;99.90
51902;DHT22;37929;53.218;6.548;2023-12-20T02:20:44;6.10;99.90
51902;DHT22;37929;53.218;6.548;2023-12-20T02:23:10;6.00;99.90
51902;DHT22;37929;53.218;6.548;2023-12-20T02:25:35;5.90;99.90
51902;DHT22;37929;53.218;6.548;2023-12-20T02:28:02;5.90;99.90
51902;DHT22;37929;53.218;6.548;2023-12-20T02:30:28;5.90;99.90
51902;DHT22;37929;53.218;6.548;2023-12-20T02:32:54;6.00;99.90
51902;DHT22;37929;53.218;6.548;2023-12-20T02:35:20;5.90;99.90
51902;DHT22;37929;53.218;6.548;2023-12-20T02:37:45;5.90;99.90
51902;DHT22;37929;53.218;6.548;2023-12-20T02:40:11;5.90;99.90
51902;DHT22;37929;53.218;6.548;2023-12-20T02:42:37;5.90;99.90
51902;DHT22;37929;53.218;6.548;2023-12-20T02:45:03;5.90;99.90
51902;DHT22;37929;53.218;6.548;2023-12-20T02:47:29;6.10;99.90
51902;DHT22;37929;53.218;6.548;2023-12-20T02:49:55;6.10;99.90
51902;DHT22;37929;53.218;6.548;2023-12-20T02:52:23;6.10;99.90
51902;DHT22;37929;53.218;6.548;2023-12-20T02:54:49;6.20;99.90
51902;DHT22;37929;53.218;6.548;2023-12-20T02:57:15;6.10;99.90
51902;DHT22;37929;53.218;6.548;2023-12-20T02:59:40;6.20;99.90
51902;DHT22;37929;53.218;6.548;2023-12-20T03:02:06;6.20;99.90
51902;DHT22;37929;53.218;6.548;2023-12-20T03:04:32;6.20;99.90
51902;DHT22;37929;53.218;6.548;2023-12-20T03:06:57;6.80;99.90
51902;DHT22;37929;53.218;6.548;2023-12-20T03:09:23;6.40;99.90
51902;DHT22;37929;53.218;6.548;2023-12-20T03:11:49;6.20;99.90
51902;DHT22;37929;53.218;6.548;2023-12-20T03:14:14;6.20;99.90
51902;DHT22;37929;53.218;6.548;2023-12-20T03:16:40;6.20;99.90
51902;DHT22;37929;53.218;6.548;2023-12-20T03:19:06;6.20;99.90
51902;DHT22;37929;53.218;6.548;2023-12-20T03:21:31;6.20;99.90
51902;DHT22;37929;53.218;6.548;2023-12-20T03:23:57;6.20;99.90
51902;DHT22;37929;53.218;6.548;2023-12-20T03:26:23;6.40;99.90
51902;DHT22;37929;53.218;6.548;2023-12-20T03:28:49;7.00;99.90
51902;DHT22;37929;53.218;6.548;2023-12-20T03:31:14;7.40;99.90
51902;DHT22;37929;53.218;6.548;2023-12-20T03:33:40;6.40;99.90
51902;DHT22;37929;53.218;6.548;2023-12-20T03:36:06;7.90;99.90
51902;DHT22;37929;53.218;6.548;2023-12-20T03:38:32;6.50;99.90
51902;DHT22;37929;53.218;6.548;2023-12-20T03:40:57;6.50;99.90
51902;DHT22;37929;53.218;6.548;2023-12-20T03:43:23;6.60;99.90
51902;DHT22;37929;53.218;6.548;2023-12-20T03:45:49;7.30;99.90
51902;DHT22;37929;53.218;6.548;2023-12-20T03:48:14;6.60;99.90
51902;DHT22;37929;53.218;6.548;2023-12-20T03:50:40;6.40;99.90
51902;DHT22;37929;53.218;6.548;2023-12-20T03:53:06;6.40;99.90
51902;DHT22;37929;53.218;6.548;2023-12-20T03:55:32;6.60;99.90
51902;DHT22;37929;53.218;6.548;2023-12-20T03:57:57;6.40;99.90
51902;DHT22;37929;53.218;6.548;2023-12-20T04:00:23;6.40;99.90
51902;DHT22;37929;53.218;6.548;2023-12-20T04:02:49;6.50;99.90
51902;DHT22;37929;53.218;6.548;2023-12-20T04:05:14;6.50;99.90
51902;DHT22;37929;53.218;6.548;2023-12-20T04:07:40;7.80;99.90
51902;DHT22;37929;53.218;6.548;2023-12-20T04:10:06;6.50;99.90
51902;DHT22;37929;53.218;6.548;2023-12-20T04:12:32;6.50;99.90
51902;DHT22;37929;53.218;6.548;2023-12-20T04:14:58;6.50;99.90
51902;DHT22;37929;53.218;6.548;2023-12-20T04:17:24;6.50;99.90
51902;DHT22;37929;53.218;6.548;2023-12-20T04:19:50;6.50;99.90
51902;DHT22;37929;53.218;6.548;2023-12-20T04:22:17;6.50;99.90
51902;DHT22;37929;53.218;6.548;2023-12-20T04:24:43;7.30;99.90
51902;DHT22;37929;53.218;6.548;2023-12-20T04:27:09;6.50;99.90
51902;DHT22;37929;53.218;6.548;2023-12-20T04:29:35;6.50;99.90
51902;DHT22;37929;53.218;6.548;2023-12-20T04:32:01;6.50;99.90
51902;DHT22;37929;53.218;6.548;2023-12-20T04:34:27;7.20;99.90
51902;DHT22;37929;53.218;6.548;2023-12-20T04:36:53;6.60;99.90
51902;DHT22;37929;53.218;6.548;2023-12-20T04:39:18;6.60;99.90
51902;DHT22;37929;53.218;6.548;2023-12-20T04:41:44;6.70;99.90
51902;DHT22;37929;53.218;6.548;2023-12-20T04:44:10;6.70;99.90
51902;DHT22;37929;53.218;6.548;2023-12-20T04:46:35;6.70;99.90
51902;DHT22;37929;53.218;6.548;2023-12-20T04:49:01;8.00;99.90
51902;DHT22;37929;53.218;6.548;2023-12-20T04:51:27;7.70;99.90
51902;DHT22;37929;53.218;6.548;2023-12-20T04:53:53;6.90;99.90
51902;DHT22;37929;53.218;6.548;2023-12-20T04:56:19;6.90;99.90
51902;DHT22;37929;53.218;6.548;2023-12-20T04:58:44;7.30;99.90
51902;DHT22;37929;53.218;6.548;2023-12-20T05:01:10;6.90;99.90
51902;DHT22;37929;53.218;6.548;2023-12-20T05:03:37;6.90;99.90
51902;DHT22;37929;53.218;6.548;2023-12-20T05:06:03;7.40;99.90
51902;DHT22;37929;53.218;6.548;2023-12-20T05:08:29;7.00;99.90
51902;DHT22;37929;53.218;6.548;2023-12-20T05:10:55;7.00;99.90
51902;DHT22;37929;53.218;6.548;2023-12-20T05:13:21;7.00;99.90
51902;DHT22;37929;53.218;6.548;2023-12-20T05:15:46;7.50;99.90
51902;DHT22;37929;53.218;6.548;2023-12-20T05:18:13;7.00;99.90
51902;DHT22;37929;53.218;6.548;2023-12-20T05:20:39;8.10;99.90
51902;DHT22;37929;53.218;6.548;2023-12-20T05:23:05;7.00;99.90
51902;DHT22;37929;53.218;6.548;2023-12-20T05:25:31;8.20;99.90
51902;DHT22;37929;53.218;6.548;2023-12-20T05:27:57;7.10;99.90
51902;DHT22;37929;53.218;6.548;2023-12-20T05:30:23;7.10;99.90
51902;DHT22;37929;53.218;6.548;2023-12-20T05:32:49;7.10;99.90
51902;DHT22;37929;53.218;6.548;2023-12-20T05:35:14;7.10;99.90
51902;DHT22;37929;53.218;6.548;2023-12-20T05:37:41;7.10;99.90
51902;DHT22;37929;53.218;6.548;2023-12-20T05:40:07;7.20;99.90
51902;DHT22;37929;53.218;6.548;2023-12-20T05:42:36;7.20;99.90
51902;DHT22;37929;53.218;6.548;2023-12-20T05:45:04;7.20;99.90
51902;DHT22;37929;53.218;6.548;2023-12-20T05:47:30;7.20;99.90
51902;DHT22;37929;53.218;6.548;2023-12-20T05:49:56;7.20;99.90
51902;DHT22;37929;53.218;6.548;2023-12-20T05:52:22;7.20;99.90
51902;DHT22;37929;53.218;6.548;2023-12-20T05:54:48;7.20;99.90
51902;DHT22;37929;53.218;6.548;2023-12-20T05:57:14;7.20;99.90
51902;DHT22;37929;53.218;6.548;2023-12-20T05:59:40;7.20;99.90
51902;DHT22;37929;53.218;6.548;2023-12-20T06:02:05;7.20;99.90
51902;DHT22;37929;53.218;6.548;2023-12-20T06:04:31;7.20;99.90
51902;DHT22;37929;53.218;6.548;2023-12-20T06:06:57;8.40;99.90
51902;DHT22;37929;53.218;6.548;2023-12-20T06:09:23;7.30;99.90
51902;DHT22;37929;53.218;6.548;2023-12-20T06:11:49;7.30;99.90
51902;DHT22;37929;53.218;6.548;2023-12-20T06:14:15;7.30;99.90
51902;DHT22;37929;53.218;6.548;2023-12-20T06:16:40;7.30;99.90
51902;DHT22;37929;53.218;6.548;2023-12-20T06:19:06;8.30;99.90
51902;DHT22;37929;53.218;6.548;2023-12-20T06:21:32;7.30;99.90
51902;DHT22;37929;53.218;6.548;2023-12-20T06:23:59;7.40;99.90
51902;DHT22;37929;53.218;6.548;2023-12-20T06:26:25;7.40;99.90
51902;DHT22;37929;53.218;6.548;2023-12-20T06:28:50;8.30;99.90
51902;DHT22;37929;53.218;6.548;2023-12-20T06:31:16;7.40;99.90
51902;DHT22;37929;53.218;6.548;2023-12-20T06:33:43;7.40;99.90
51902;DHT22;37929;53.218;6.548;2023-12-20T06:36:12;8.00;99.90
51902;DHT22;37929;53.218;6.548;2023-12-20T06:38:39;7.40;99.90
51902;DHT22;37929;53.218;6.548;2023-12-20T06:41:05;8.80;99.90
51902;DHT22;37929;53.218;6.548;2023-12-20T06:43:31;7.40;99.90
51902;DHT22;37929;53.218;6.548;2023-12-20T06:45:58;7.50;99.90
51902;DHT22;37929;53.218;6.548;2023-12-20T06:48:24;7.50;99.90
51902;DHT22;37929;53.218;6.548;2023-12-20T06:50:49;8.00;99.90
51902;DHT22;37929;53.218;6.548;2023-12-20T06:53:15;7.50;99.90
51902;DHT22;37929;53.218;6.548;2023-12-20T06:55:44;7.50;99.90
51902;DHT22;37929;53.218;6.548;2023-12-20T06:58:10;7.60;99.90
51902;DHT22;37929;53.218;6.548;2023-12-20T07:00:36;7.60;99.90
51902;DHT22;37929;53.218;6.548;2023-12-20T07:03:01;8.50;99.90
51902;DHT22;37929;53.218;6.548;2023-12-20T07:05:27;7.60;99.90
51902;DHT22;37929;53.218;6.548;2023-12-20T07:07:53;7.60;99.90
51902;DHT22;37929;53.218;6.548;2023-12-20T07:10:19;7.70;99.90
51902;DHT22;37929;53.218;6.548;2023-12-20T07:12:45;7.70;99.90
51902;DHT22;37929;53.218;6.548;2023-12-20T07:15:11;7.80;99.90
51902;DHT22;37929;53.218;6.548;2023-12-20T07:17:37;7.70;99.90
51902;DHT22;37929;53.218;6.548;2023-12-20T07:20:03;7.70;99.90
51902;DHT22;37929;53.218;6.548;2023-12-20T07:22:30;7.80;99.90
51902;DHT22;37929;53.218;6.548;2023-12-20T07:24:59;7.80;99.90
51902;DHT22;37929;53.218;6.548;2023-12-20T07:27:29;7.90;99.90
51902;DHT22;37929;53.218;6.548;2023-12-20T07:29:54;7.90;99.90
51902;DHT22;37929;53.218;6.548;2023-12-20T07:32:20;7.90;99.90
51902;DHT22;37929;53.218;6.548;2023-12-20T07:34:46;7.90;99.90
51902;DHT22;37929;53.218;6.548;2023-12-20T07:37:12;7.90;99.90
51902;DHT22;37929;53.218;6.548;2023-12-20T07:39:40;8.00;99.90
51902;DHT22;37929;53.218;6.548;2023-12-20T07:42:07;8.00;99.90
51902;DHT22;37929;53.218;6.548;2023-12-20T07:44:33;8.50;99.90
51902;DHT22;37929;53.218;6.548;2023-12-20T07:46:59;8.00;99.90
51902;DHT22;37929;53.218;6.548;2023-12-20T07:49:26;7.90;99.90
51902;DHT22;37929;53.218;6.548;2023-12-20T07:51:52;7.80;99.90
51902;DHT22;37929;53.218;6.548;2023-12-20T07:54:18;7.90;99.90
51902;DHT22;37929;53.218;6.548;2023-12-20T07:56:44;8.00;99.90
51902;DHT22;37929;53.218;6.548;2023-12-20T07:59:09;7.90;99.90
51902;DHT22;37929;53.218;6.548;2023-12-20T08:01:35;7.90;99.90
51902;DHT22;37929;53.218;6.548;2023-12-20T08:04:01;8.10;99.90
51902;DHT22;37929;53.218;6.548;2023-12-20T08:06:27;7.90;99.90
51902;DHT22;37929;53.218;6.548;2023-12-20T08:08:52;9.30;99.90
51902;DHT22;37929;53.218;6.548;2023-12-20T08:11:19;7.90;99.90
51902;DHT22;37929;53.218;6.548;2023-12-20T08:13:44;7.90;99.90
51902;DHT22;37929;53.218;6.548;2023-12-20T08:16:10;7.90;99.90
51902;DHT22;37929;53.218;6.548;2023-12-20T08:18:39;7.90;99.90
51902;DHT22;37929;53.218;6.548;2023-12-20T08:21:04;7.90;99.90
51902;DHT22;37929;53.218;6.548;2023-12-20T08:23:33;8.00;99.90
51902;DHT22;37929;53.218;6.548;2023-12-20T08:26:06;8.00;99.90
51902;DHT22;37929;53.218;6.548;2023-12-20T08:28:32;8.00;99.90
51902;DHT22;37929;53.218;6.548;2023-12-20T08:30:58;9.60;99.90
51902;DHT22;37929;53.218;6.548;2023-12-20T08:33:24;8.00;99.90
51902;DHT22;37929;53.218;6.548;2023-12-20T08:35:50;9.00;99.90
51902;DHT22;37929;53.218;6.548;2023-12-20T08:38:15;7.90;99.90
51902;DHT22;37929;53.218;6.548;2023-12-20T08:40:42;8.00;99.90
51902;DHT22;37929;53.218;6.548;2023-12-20T08:43:11;8.70;99.90
51902;DHT22;37929;53.218;6.548;2023-12-20T08:45:37;7.90;99.90
51902;DHT22;37929;53.218;6.548;2023-12-20T08:48:04;7.80;99.90
51902;DHT22;37929;53.218;6.548;2023-12-20T08:50:30;7.60;99.90
51902;DHT22;37929;53.218;6.548;2023-12-20T08:52:56;7.50;99.90
51902;DHT22;37929;53.218;6.548;2023-12-20T08:55:21;7.20;99.90
51902;DHT22;37929;53.218;6.548;2023-12-20T08:57:48;7.00;99.90
51902;DHT22;37929;53.218;6.548;2023-12-20T09:00:15;8.20;99.90
51902;DHT22;37929;53.218;6.548;2023-12-20T09:02:41;6.60;99.90
51902;DHT22;37929;53.218;6.548;2023-12-20T09:05:07;6.50;99.90
51902;DHT22;37929;53.218;6.548;2023-12-20T09:07:33;6.40;99.90
51902;DHT22;37929;53.218;6.548;2023-12-20T09:09:59;6.40;99.90
51902;DHT22;37929;53.218;6.548;2023-12-20T09:12:25;6.40;99.90
51902;DHT22;37929;53.218;6.548;2023-12-20T09:14:51;7.50;99.90
51902;DHT22;37929;53.218;6.548;2023-12-20T09:17:18;6.30;99.90
51902;DHT22;37929;53.218;6.548;2023-12-20T09:19:44;6.30;99.90
51902;DHT22;37929;53.218;6.548;2023-12-20T09:22:10;6.30;99.90
51902;DHT22;37929;53.218;6.548;2023-12-20T09:24:36;7.60;99.90
51902;DHT22;37929;53.218;6.548;2023-12-20T09:27:02;6.30;99.90
51902;DHT22;37929;53.218;6.548;2023-12-20T09:29:29;6.20;99.90
51902;DHT22;37929;53.218;6.548;2023-12-20T09:31:54;7.20;99.90
51902;DHT22;37929;53.218;6.548;2023-12-20T09:34:21;6.20;99.90
51902;DHT22;37929;53.218;6.548;2023-12-20T09:36:48;6.10;99.90
51902;DHT22;37929;53.218;6.548;2023-12-20T09:39:14;6.60;99.90
51902;DHT22;37929;53.218;6.548;2023-12-20T09:42:04;6.10;99.90
51902;DHT22;37929;53.218;6.548;2023-12-20T09:44:31;6.10;99.90
51902;DHT22;37929;53.218;6.548;2023-12-20T09:47:04;5.90;99.90
51902;DHT22;37929;53.218;6.548;2023-12-20T09:49:31;6.00;99.90
51902;DHT22;37929;53.218;6.548;2023-12-20T09:51:59;7.50;99.90
51902;DHT22;37929;53.218;6.548;2023-12-20T09:54:27;6.10;99.90
51902;DHT22;37929;53.218;6.548;2023-12-20T09:56:54;6.10;99.90
51902;DHT22;37929;53.218;6.548;2023-12-20T09:59:20;6.10;99.90
51902;DHT22;37929;53.218;6.548;2023-12-20T10:01:45;6.40;99.90
51902;DHT22;37929;53.218;6.548;2023-12-20T10:04:12;6.30;99.90
51902;DHT22;37929;53.218;6.548;2023-12-20T10:06:42;6.50;99.90
51902;DHT22;37929;53.218;6.548;2023-12-20T10:09:10;6.20;99.90
51902;DHT22;37929;53.218;6.548;2023-12-20T10:11:39;6.30;99.90
51902;DHT22;37929;53.218;6.548;2023-12-20T10:14:06;6.40;99.90
51902;DHT22;37929;53.218;6.548;2023-12-20T10:16:33;6.50;99.90
51902;DHT22;37929;53.218;6.548;2023-12-20T10:18:59;6.50;99.90
51902;DHT22;37929;53.218;6.548;2023-12-20T10:21:25;6.60;99.90
51902;DHT22;37929;53.218;6.548;2023-12-20T10:23:55;6.50;99.90
51902;DHT22;37929;53.218;6.548;2023-12-20T10:26:21;7.00;99.90
51902;DHT22;37929;53.218;6.548;2023-12-20T10:28:52;6.70;99.90
51902;DHT22;37929;53.218;6.548;2023-12-20T10:33:56;6.80;99.90
51902;DHT22;37929;53.218;6.548;2023-12-20T10:36:26;7.10;99.90
51902;DHT22;37929;53.218;6.548;2023-12-20T10:38:53;6.90;99.90
51902;DHT22;37929;53.218;6.548;2023-12-20T10:41:26;7.00;99.90
51902;DHT22;37929;53.218;6.548;2023-12-20T10:43:55;7.10;99.90
51902;DHT22;37929;53.218;6.548;2023-12-20T10:46:21;7.10;99.90
51902;DHT22;37929;53.218;6.548;2023-12-20T10:48:53;7.10;99.90
51902;DHT22;37929;53.218;6.548;2023-12-20T10:51:20;7.10;99.90
51902;DHT22;37929;53.218;6.548;2023-12-20T10:53:54;7.20;99.90
51902;DHT22;37929;53.218;6.548;2023-12-20T10:56:20;7.10;99.90
51902;DHT22;37929;53.218;6.548;2023-12-20T10:58:49;7.10;99.90
51902;DHT22;37929;53.218;6.548;2023-12-20T11:01:17;7.00;99.90
51902;DHT22;37929;53.218;6.548;2023-12-20T11:03:48;7.00;99.90
51902;DHT22;37929;53.218;6.548;2023-12-20T11:09:20;7.60;99.90
51902;DHT22;37929;53.218;6.548;2023-12-20T11:14:46;7.00;99.90
51902;DHT22;37929;53.218;6.548;2023-12-20T11:17:12;7.00;99.90
51902;DHT22;37929;53.218;6.548;2023-12-20T11:22:31;7.70;99.90
51902;DHT22;37929;53.218;6.548;2023-12-20T11:25:05;7.60;99.90
51902;DHT22;37929;53.218;6.548;2023-12-20T11:27:35;7.10;99.90
51902;DHT22;37929;53.218;6.548;2023-12-20T11:30:03;8.50;99.90
51902;DHT22;37929;53.218;6.548;2023-12-20T11:32:34;7.10;99.90
51902;DHT22;37929;53.218;6.548;2023-12-20T11:35:17;7.20;99.90
51902;DHT22;37929;53.218;6.548;2023-12-20T11:37:43;7.80;99.90
51902;DHT22;37929;53.218;6.548;2023-12-20T11:40:17;7.30;99.90
51902;DHT22;37929;53.218;6.548;2023-12-20T11:42:44;7.30;99.90
51902;DHT22;37929;53.218;6.548;2023-12-20T11:45:13;7.30;99.90
51902;DHT22;37929;53.218;6.548;2023-12-20T11:47:45;7.30;99.90
51902;DHT22;37929;53.218;6.548;2023-12-20T11:50:11;8.20;99.90
51902;DHT22;37929;53.218;6.548;2023-12-20T11:52:40;7.40;99.90
51902;DHT22;37929;53.218;6.548;2023-12-20T11:55:06;7.40;99.90
51902;DHT22;37929;53.218;6.548;2023-12-20T11:57:32;7.40;99.90
51902;DHT22;37929;53.218;6.548;2023-12-20T11:59:58;7.40;99.90
51902;DHT22;37929;53.218;6.548;2023-12-20T12:02:24;7.40;99.90
51902;DHT22;37929;53.218;6.548;2023-12-20T12:04:50;7.40;99.90
51902;DHT22;37929;53.218;6.548;2023-12-20T12:07:19;7.40;99.90
51902;DHT22;37929;53.218;6.548;2023-12-20T12:09:45;7.40;99.90
51902;DHT22;37929;53.218;6.548;2023-12-20T12:12:12;8.90;99.90
51902;DHT22;37929;53.218;6.548;2023-12-20T12:14:48;7.40;99.90
51902;DHT22;37929;53.218;6.548;2023-12-20T12:17:15;7.40;99.90
51902;DHT22;37929;53.218;6.548;2023-12-20T12:19:43;7.40;99.90
51902;DHT22;37929;53.218;6.548;2023-12-20T12:22:14;7.80;99.90
51902;DHT22;37929;53.218;6.548;2023-12-20T12:24:41;7.40;99.90
51902;DHT22;37929;53.218;6.548;2023-12-20T12:27:08;7.40;99.90
51902;DHT22;37929;53.218;6.548;2023-12-20T12:29:34;7.40;99.90
51902;DHT22;37929;53.218;6.548;2023-12-20T12:32:01;7.40;99.90
51902;DHT22;37929;53.218;6.548;2023-12-20T12:34:29;7.50;99.90
51902;DHT22;37929;53.218;6.548;2023-12-20T12:36:56;7.70;99.90
51902;DHT22;37929;53.218;6.548;2023-12-20T12:39:24;7.40;99.90
51902;DHT22;37929;53.218;6.548;2023-12-20T12:41:53;7.90;99.90
51902;DHT22;37929;53.218;6.548;2023-12-20T12:44:19;7.50;99.90
51902;DHT22;37929;53.218;6.548;2023-12-20T12:46:46;7.50;99.90
51902;DHT22;37929;53.218;6.548;2023-12-20T12:49:12;7.50;99.90
51902;DHT22;37929;53.218;6.548;2023-12-20T12:51:37;7.50;99.90
51902;DHT22;37929;53.218;6.548;2023-12-20T12:54:04;7.50;99.90
51902;DHT22;37929;53.218;6.548;2023-12-20T12:56:30;7.60;99.90
51902;DHT22;37929;53.218;6.548;2023-12-20T12:58:56;7.60;99.90
51902;DHT22;37929;53.218;6.548;2023-12-20T13:01:25;8.40;99.90
51902;DHT22;37929;53.218;6.548;2023-12-20T13:03:50;7.60;99.90
51902;DHT22;37929;53.218;6.548;2023-12-20T13:06:16;7.70;99.90
51902;DHT22;37929;53.218;6.548;2023-12-20T13:08:43;7.70;99.90
51902;DHT22;37929;53.218;6.548;2023-12-20T13:11:11;7.60;99.90
51902;DHT22;37929;53.218;6.548;2023-12-20T13:13:37;7.80;99.90
51902;DHT22;37929;53.218;6.548;2023-12-20T13:16:03;7.60;99.90
51902;DHT22;37929;53.218;6.548;2023-12-20T13:18:29;7.50;99.90
51902;DHT22;37929;53.218;6.548;2023-12-20T13:20:55;7.50;99.90
51902;DHT22;37929;53.218;6.548;2023-12-20T13:23:21;7.50;99.90
51902;DHT22;37929;53.218;6.548;2023-12-20T13:25:46;7.50;99.90
51902;DHT22;37929;53.218;6.548;2023-12-20T13:28:12;7.40;99.90
51902;DHT22;37929;53.218;6.548;2023-12-20T13:30:38;8.00;99.90
51902;DHT22;37929;53.218;6.548;2023-12-20T13:33:07;7.70;99.90
51902;DHT22;37929;53.218;6.548;2023-12-20T13:35:34;7.30;99.90
51902;DHT22;37929;53.218;6.548;2023-12-20T13:38:00;7.90;99.90
51902;DHT22;37929;53.218;6.548;2023-12-20T13:40:26;7.30;99.90
51902;DHT22;37929;53.218;6.548;2023-12-20T13:42:52;7.40;99.90
51902;DHT22;37929;53.218;6.548;2023-12-20T13:45:18;7.30;99.90
51902;DHT22;37929;53.218;6.548;2023-12-20T13:47:44;7.30;99.90
51902;DHT22;37929;53.218;6.548;2023-12-20T13:50:10;7.20;99.90
51902;DHT22;37929;53.218;6.548;2023-12-20T13:52:35;7.20;99.90
51902;DHT22;37929;53.218;6.548;2023-12-20T13:55:02;7.20;99.90
51902;DHT22;37929;53.218;6.548;2023-12-20T13:57:27;7.20;99.90
51902;DHT22;37929;53.218;6.548;2023-12-20T13:59:55;7.20;99.90
51902;DHT22;37929;53.218;6.548;2023-12-20T14:02:23;7.10;99.90
51902;DHT22;37929;53.218;6.548;2023-12-20T14:04:49;7.10;99.90
51902;DHT22;37929;53.218;6.548;2023-12-20T14:07:15;7.10;99.90
51902;DHT22;37929;53.218;6.548;2023-12-20T14:09:41;7.00;99.90
51902;DHT22;37929;53.218;6.548;2023-12-20T14:12:11;7.00;99.90
51902;DHT22;37929;53.218;6.548;2023-12-20T14:14:37;7.00;99.90
51902;DHT22;37929;53.218;6.548;2023-12-20T14:17:03;6.90;99.90
51902;DHT22;37929;53.218;6.548;2023-12-20T14:19:29;5.90;99.90
51902;DHT22;37929;53.218;6.548;2023-12-20T14:21:55;6.70;99.90
51902;DHT22;37929;53.218;6.548;2023-12-20T14:24:21;6.70;99.90
51902;DHT22;37929;53.218;6.548;2023-12-20T14:26:46;6.70;99.90
51902;DHT22;37929;53.218;6.548;2023-12-20T14:29:12;6.70;99.90
51902;DHT22;37929;53.218;6.548;2023-12-20T14:31:41;6.70;99.90
51902;DHT22;37929;53.218;6.548;2023-12-20T14:34:07;6.80;99.90
51902;DHT22;37929;53.218;6.548;2023-12-20T14:36:34;6.80;99.90
51902;DHT22;37929;53.218;6.548;2023-12-20T14:39:00;7.10;99.90
51902;DHT22;37929;53.218;6.548;2023-12-20T14:41:27;6.80;99.90
51902;DHT22;37929;53.218;6.548;2023-12-20T14:43:53;6.80;99.90
51902;DHT22;37929;53.218;6.548;2023-12-20T14:46:19;6.80;99.90
51902;DHT22;37929;53.218;6.548;2023-12-20T14:48:45;8.00;99.90
51902;DHT22;37929;53.218;6.548;2023-12-20T14:51:10;5.40;99.90
51902;DHT22;37929;53.218;6.548;2023-12-20T14:53:37;8.10;99.90
51902;DHT22;37929;53.218;6.548;2023-12-20T14:56:04;7.50;99.90
51902;DHT22;37929;53.218;6.548;2023-12-20T14:58:30;6.60;99.90
51902;DHT22;37929;53.218;6.548;2023-12-20T15:00:57;6.70;99.90
51902;DHT22;37929;53.218;6.548;2023-12-20T15:03:23;6.60;99.90
51902;DHT22;37929;53.218;6.548;2023-12-20T15:05:48;6.60;99.90
51902;DHT22;37929;53.218;6.548;2023-12-20T15:08:14;7.20;99.90
51902;DHT22;37929;53.218;6.548;2023-12-20T15:10:40;6.50;99.90
51902;DHT22;37929;53.218;6.548;2023-12-20T15:13:06;6.40;99.90
51902;DHT22;37929;53.218;6.548;2023-12-20T15:15:32;6.40;99.90
51902;DHT22;37929;53.218;6.548;2023-12-20T15:18:01;6.40;99.90
51902;DHT22;37929;53.218;6.548;2023-12-20T15:20:29;6.40;99.90
51902;DHT22;37929;53.218;6.548;2023-12-20T15:22:55;6.80;99.90
51902;DHT22;37929;53.218;6.548;2023-12-20T15:25:24;6.40;99.90
51902;DHT22;37929;53.218;6.548;2023-12-20T15:27:50;6.40;99.90
51902;DHT22;37929;53.218;6.548;2023-12-20T15:30:27;6.30;99.90
51902;DHT22;37929;53.218;6.548;2023-12-20T15:32:53;6.30;99.90
51902;DHT22;37929;53.218;6.548;2023-12-20T15:35:19;6.30;99.90
51902;DHT22;37929;53.218;6.548;2023-12-20T15:37:45;6.30;99.90
51902;DHT22;37929;53.218;6.548;2023-12-20T15:40:11;6.30;99.90
51902;DHT22;37929;53.218;6.548;2023-12-20T15:43:03;6.30;99.90
51902;DHT22;37929;53.218;6.548;2023-12-20T15:45:29;6.20;99.90
51902;DHT22;37929;53.218;6.548;2023-12-20T15:47:55;6.40;99.90
51902;DHT22;37929;53.218;6.548;2023-12-20T15:50:21;7.70;99.90
51902;DHT22;37929;53.218;6.548;2023-12-20T15:52:46;6.30;99.90